sensor_id;sensor_type;location;lat;lon;timestamp;pressure;altitude;pressure_sealevel;temperature;humidity
84617;BME280;74846;51.126;16.944;2023-12-20T00:01:22;99755.78;;;6.97;74.28
84617;BME280;74846;51.126;16.944;2023-12-20T00:03:50;99762.76;;;6.97;73.88
84617;BME280;74846;51.126;16.944;2023-12-20T00:06:18;99759.04;;;6.94;73.83
84617;BME280;74846;51.126;16.944;2023-12-20T00:08:47;99760.50;;;6.93;73.93
84617;BME280;74846;51.126;16.944;2023-12-20T00:11:15;99752.52;;;6.89;73.80
84617;BME280;74846;51.126;16.944;2023-12-20T00:13:43;99745.41;;;6.87;73.56
84617;BME280;74846;51.126;16.944;2023-12-20T00:16:13;99749.20;;;6.92;73.85
84617;BME280;74846;51.126;16.944;2023-12-20T00:18:41;99745.59;;;6.98;74.03
84617;BME280;74846;51.126;16.944;2023-12-20T00:21:09;99739.90;;;6.93;74.13
84617;BME280;74846;51.126;16.944;2023-12-20T00:23:37;99748.81;;;6.99;74.22
84617;BME280;74846;51.126;16.944;2023-12-20T00:26:05;99749.86;;;6.96;73.86
84617;BME280;74846;51.126;16.944;2023-12-20T00:28:33;99751.33;;;6.95;73.86
84617;BME280;74846;51.126;16.944;2023-12-20T00:31:01;99754.13;;;6.91;73.91
84617;BME280;74846;51.126;16.944;2023-12-20T00:33:29;99751.68;;;6.88;74.03
84617;BME280;74846;51.126;16.944;2023-12-20T00:35:58;99740.27;;;6.75;74.22
84617;BME280;74846;51.126;16.944;2023-12-20T00:38:26;99754.55;;;6.86;74.04
84617;BME280;74846;51.126;16.944;2023-12-20T00:40:54;99751.50;;;6.91;74.23
84617;BME280;74846;51.126;16.944;2023-12-20T00:43:22;99747.13;;;6.88;74.57
84617;BME280;74846;51.126;16.944;2023-12-20T00:45:51;99746.02;;;6.89;74.51
84617;BME280;74846;51.126;16.944;2023-12-20T00:48:19;99744.97;;;6.89;74.50
84617;BME280;74846;51.126;16.944;2023-12-20T00:50:47;99738.38;;;6.88;74.12
84617;BME280;74846;51.126;16.944;2023-12-20T00:53:15;99734.86;;;6.85;74.22
84617;BME280;74846;51.126;16.944;2023-12-20T00:55:43;99732.52;;;6.76;74.23
84617;BME280;74846;51.126;16.944;2023-12-20T00:58:12;99735.80;;;6.80;74.55
84617;BME280;74846;51.126;16.944;2023-12-20T01:00:43;99737.08;;;6.80;74.73
84617;BME280;74846;51.126;16.944;2023-12-20T01:03:11;99735.60;;;6.81;74.97
84617;BME280;74846;51.126;16.944;2023-12-20T01:05:40;99734.52;;;6.82;75.61
84617;BME280;74846;51.126;16.944;2023-12-20T01:08:08;99733.89;;;6.84;75.72
84617;BME280;74846;51.126;16.944;2023-12-20T01:13:59;99731.55;;;6.85;75.03
84617;BME280;74846;51.126;16.944;2023-12-20T01:16:27;99732.75;;;6.85;74.88
84617;BME280;74846;51.126;16.944;2023-12-20T01:18:55;99730.07;;;6.83;74.84
84617;BME280;74846;51.126;16.944;2023-12-20T01:21:23;99726.92;;;6.76;74.78
84617;BME280;74846;51.126;16.944;2023-12-20T01:23:51;99728.86;;;6.87;75.05
84617;BME280;74846;51.126;16.944;2023-12-20T01:26:19;99731.55;;;6.89;75.26
84617;BME280;74846;51.126;16.944;2023-12-20T01:28:47;99725.31;;;6.91;75.52
84617;BME280;74846;51.126;16.944;2023-12-20T01:31:15;99725.00;;;6.93;75.62
84617;BME280;74846;51.126;16.944;2023-12-20T01:33:43;99717.23;;;6.91;75.55
84617;BME280;74846;51.126;16.944;2023-12-20T01:36:11;99715.38;;;6.90;75.45
84617;BME280;74846;51.126;16.944;2023-12-20T01:38:39;99707.55;;;6.86;75.54
84617;BME280;74846;51.126;16.944;2023-12-20T01:41:07;99711.45;;;6.85;75.81
84617;BME280;74846;51.126;16.944;2023-12-20T01:43:35;99708.72;;;6.87;76.00
84617;BME280;74846;51.126;16.944;2023-12-20T01:46:17;99706.92;;;6.88;75.94
84617;BME280;74846;51.126;16.944;2023-12-20T01:48:45;99704.19;;;6.87;76.30
84617;BME280;74846;51.126;16.944;2023-12-20T01:51:13;99701.34;;;6.92;76.16
84617;BME280;74846;51.126;16.944;2023-12-20T01:53:42;99687.16;;;6.91;76.03
84617;BME280;74846;51.126;16.944;2023-12-20T01:56:10;99685.61;;;6.88;75.97
84617;BME280;74846;51.126;16.944;2023-12-20T01:58:44;99682.89;;;6.87;76.16
84617;BME280;74846;51.126;16.944;2023-12-20T02:01:12;99680.07;;;6.84;76.43
84617;BME280;74846;51.126;16.944;2023-12-20T02:03:41;99680.14;;;6.82;76.43
84617;BME280;74846;51.126;16.944;2023-12-20T02:06:10;99675.86;;;6.87;76.49
84617;BME280;74846;51.126;16.944;2023-12-20T02:08:39;99670.02;;;6.89;76.44
84617;BME280;74846;51.126;16.944;2023-12-20T02:11:07;99669.91;;;6.90;76.37
84617;BME280;74846;51.126;16.944;2023-12-20T02:13:35;99671.59;;;6.89;76.01
84617;BME280;74846;51.126;16.944;2023-12-20T02:16:03;99681.39;;;6.85;75.69
84617;BME280;74846;51.126;16.944;2023-12-20T02:18:32;99674.34;;;6.83;75.82
84617;BME280;74846;51.126;16.944;2023-12-20T02:21:00;99675.12;;;6.81;75.69
84617;BME280;74846;51.126;16.944;2023-12-20T02:23:28;99669.99;;;6.82;75.84
84617;BME280;74846;51.126;16.944;2023-12-20T02:25:55;99663.17;;;6.82;76.04
84617;BME280;74846;51.126;16.944;2023-12-20T02:28:24;99664.86;;;6.84;75.94
84617;BME280;74846;51.126;16.944;2023-12-20T02:30:52;99668.70;;;6.80;75.82
84617;BME280;74846;51.126;16.944;2023-12-20T02:33:20;99662.90;;;6.78;75.74
84617;BME280;74846;51.126;16.944;2023-12-20T02:35:48;99669.80;;;6.73;75.70
84617;BME280;74846;51.126;16.944;2023-12-20T02:38:16;99670.13;;;6.66;75.86
84617;BME280;74846;51.126;16.944;2023-12-20T02:40:44;99661.70;;;6.61;75.94
84617;BME280;74846;51.126;16.944;2023-12-20T02:43:16;99664.37;;;6.66;76.22
84617;BME280;74846;51.126;16.944;2023-12-20T02:45:44;99662.30;;;6.69;76.11
84617;BME280;74846;51.126;16.944;2023-12-20T02:48:12;99655.90;;;6.64;76.48
84617;BME280;74846;51.126;16.944;2023-12-20T02:50:41;99638.40;;;6.58;76.32
84617;BME280;74846;51.126;16.944;2023-12-20T02:53:09;99647.43;;;6.66;76.11
84617;BME280;74846;51.126;16.944;2023-12-20T02:55:37;99647.71;;;6.60;76.28
84617;BME280;74846;51.126;16.944;2023-12-20T02:58:04;99647.47;;;6.58;75.93
84617;BME280;74846;51.126;16.944;2023-12-20T03:00:35;99640.13;;;6.51;76.35
84617;BME280;74846;51.126;16.944;2023-12-20T03:03:03;99624.58;;;6.38;76.52
84617;BME280;74846;51.126;16.944;2023-12-20T03:05:32;99637.66;;;6.49;76.56
84617;BME280;74846;51.126;16.944;2023-12-20T03:08:00;99625.56;;;6.43;76.59
84617;BME280;74846;51.126;16.944;2023-12-20T03:10:28;99629.92;;;6.46;76.82
84617;BME280;74846;51.126;16.944;2023-12-20T03:12:56;99626.39;;;6.44;76.74
84617;BME280;74846;51.126;16.944;2023-12-20T03:15:24;99643.31;;;6.48;76.62
84617;BME280;74846;51.126;16.944;2023-12-20T03:17:52;99643.83;;;6.44;76.31
84617;BME280;74846;51.126;16.944;2023-12-20T03:20:20;99644.54;;;6.40;76.42
84617;BME280;74846;51.126;16.944;2023-12-20T03:22:48;99640.55;;;6.40;76.18
84617;BME280;74846;51.126;16.944;2023-12-20T03:25:18;99637.39;;;6.37;76.19
84617;BME280;74846;51.126;16.944;2023-12-20T03:27:46;99621.14;;;6.30;76.30
84617;BME280;74846;51.126;16.944;2023-12-20T03:30:14;99632.40;;;6.43;76.33
84617;BME280;74846;51.126;16.944;2023-12-20T03:32:43;99637.16;;;6.41;76.36
84617;BME280;74846;51.126;16.944;2023-12-20T03:35:11;99636.40;;;6.39;76.08
84617;BME280;74846;51.126;16.944;2023-12-20T03:37:39;99632.40;;;6.35;76.01
84617;BME280;74846;51.126;16.944;2023-12-20T03:40:07;99638.77;;;6.30;76.06
84617;BME280;74846;51.126;16.944;2023-12-20T03:42:35;99644.73;;;6.27;76.09
84617;BME280;74846;51.126;16.944;2023-12-20T03:45:04;99645.59;;;6.27;76.22
84617;BME280;74846;51.126;16.944;2023-12-20T03:47:32;99644.78;;;6.25;76.37
84617;BME280;74846;51.126;16.944;2023-12-20T03:50:00;99641.52;;;6.28;76.29
84617;BME280;74846;51.126;16.944;2023-12-20T03:52:28;99645.20;;;6.21;76.18
84617;BME280;74846;51.126;16.944;2023-12-20T03:54:56;99647.16;;;6.20;75.85
84617;BME280;74846;51.126;16.944;2023-12-20T03:57:24;99643.03;;;6.12;76.01
84617;BME280;74846;51.126;16.944;2023-12-20T03:59:52;99644.82;;;6.07;76.12
84617;BME280;74846;51.126;16.944;2023-12-20T04:02:20;99640.38;;;6.09;76.21
84617;BME280;74846;51.126;16.944;2023-12-20T04:04:48;99644.89;;;6.09;76.59
84617;BME280;74846;51.126;16.944;2023-12-20T04:07:15;99648.78;;;6.08;76.65
84617;BME280;74846;51.126;16.944;2023-12-20T04:09:44;99650.52;;;6.08;76.63
84617;BME280;74846;51.126;16.944;2023-12-20T04:12:12;99646.29;;;6.06;76.35
84617;BME280;74846;51.126;16.944;2023-12-20T04:14:39;99648.36;;;6.07;76.33
84617;BME280;74846;51.126;16.944;2023-12-20T04:17:07;99648.27;;;6.01;76.39
84617;BME280;74846;51.126;16.944;2023-12-20T04:19:35;99650.11;;;5.99;76.33
84617;BME280;74846;51.126;16.944;2023-12-20T04:22:04;99647.23;;;5.98;76.49
84617;BME280;74846;51.126;16.944;2023-12-20T04:24:32;99644.30;;;6.00;76.88
84617;BME280;74846;51.126;16.944;2023-12-20T04:27:01;99648.05;;;6.02;76.71
84617;BME280;74846;51.126;16.944;2023-12-20T04:29:29;99640.44;;;5.97;77.09
84617;BME280;74846;51.126;16.944;2023-12-20T04:31:57;99645.77;;;6.02;77.00
84617;BME280;74846;51.126;16.944;2023-12-20T04:34:26;99645.41;;;5.95;76.93
84617;BME280;74846;51.126;16.944;2023-12-20T04:36:54;99646.48;;;5.95;76.91
84617;BME280;74846;51.126;16.944;2023-12-20T04:39:22;99643.55;;;5.91;76.91
84617;BME280;74846;51.126;16.944;2023-12-20T04:41:50;99634.32;;;5.83;76.83
84617;BME280;74846;51.126;16.944;2023-12-20T04:44:18;99638.92;;;5.92;77.18
84617;BME280;74846;51.126;16.944;2023-12-20T04:46:46;99642.29;;;5.91;77.25
84617;BME280;74846;51.126;16.944;2023-12-20T04:49:14;99636.70;;;5.88;77.27
84617;BME280;74846;51.126;16.944;2023-12-20T04:51:42;99631.02;;;5.90;77.21
84617;BME280;74846;51.126;16.944;2023-12-20T04:54:10;99623.27;;;5.84;77.04
84617;BME280;74846;51.126;16.944;2023-12-20T04:56:38;99625.73;;;5.84;76.86
84617;BME280;74846;51.126;16.944;2023-12-20T04:59:06;99624.59;;;5.78;76.97
84617;BME280;74846;51.126;16.944;2023-12-20T05:01:34;99622.05;;;5.76;76.94
84617;BME280;74846;51.126;16.944;2023-12-20T05:04:02;99624.77;;;5.78;77.09
84617;BME280;74846;51.126;16.944;2023-12-20T05:06:30;99622.22;;;5.80;77.27
84617;BME280;74846;51.126;16.944;2023-12-20T05:08:58;99617.88;;;5.79;77.20
84617;BME280;74846;51.126;16.944;2023-12-20T05:11:27;99617.34;;;5.80;77.07
84617;BME280;74846;51.126;16.944;2023-12-20T05:13:55;99618.86;;;5.77;76.94
84617;BME280;74846;51.126;16.944;2023-12-20T05:16:23;99618.09;;;5.72;76.73
84617;BME280;74846;51.126;16.944;2023-12-20T05:18:51;99617.27;;;5.67;77.10
84617;BME280;74846;51.126;16.944;2023-12-20T05:21:20;99618.20;;;5.69;77.41
84617;BME280;74846;51.126;16.944;2023-12-20T05:23:48;99622.73;;;5.73;77.44
84617;BME280;74846;51.126;16.944;2023-12-20T05:26:17;99619.39;;;5.74;77.34
84617;BME280;74846;51.126;16.944;2023-12-20T05:28:45;99622.95;;;5.75;77.45
84617;BME280;74846;51.126;16.944;2023-12-20T05:31:12;99625.35;;;5.76;77.11
84617;BME280;74846;51.126;16.944;2023-12-20T05:33:40;99627.74;;;5.74;76.97
84617;BME280;74846;51.126;16.944;2023-12-20T05:36:09;99633.30;;;5.71;77.39
84617;BME280;74846;51.126;16.944;2023-12-20T05:38:39;99636.34;;;5.69;77.20
84617;BME280;74846;51.126;16.944;2023-12-20T05:41:08;99634.82;;;5.65;77.27
84617;BME280;74846;51.126;16.944;2023-12-20T05:43:36;99639.79;;;5.70;77.53
84617;BME280;74846;51.126;16.944;2023-12-20T05:46:04;99640.52;;;5.69;78.09
84617;BME280;74846;51.126;16.944;2023-12-20T05:48:32;99634.66;;;5.68;77.85
84617;BME280;74846;51.126;16.944;2023-12-20T05:51:00;99636.52;;;5.73;77.72
84617;BME280;74846;51.126;16.944;2023-12-20T05:53:28;99635.86;;;5.76;77.96
84617;BME280;74846;51.126;16.944;2023-12-20T05:55:56;99630.61;;;5.76;77.54
84617;BME280;74846;51.126;16.944;2023-12-20T05:58:24;99635.66;;;5.80;77.33
84617;BME280;74846;51.126;16.944;2023-12-20T06:00:52;99636.85;;;5.77;77.44
84617;BME280;74846;51.126;16.944;2023-12-20T06:03:20;99636.08;;;5.75;77.38
84617;BME280;74846;51.126;16.944;2023-12-20T06:05:48;99631.25;;;5.77;77.50
84617;BME280;74846;51.126;16.944;2023-12-20T06:08:16;99629.14;;;5.77;77.55
84617;BME280;74846;51.126;16.944;2023-12-20T06:10:44;99629.36;;;5.77;77.75
84617;BME280;74846;51.126;16.944;2023-12-20T06:13:12;99624.71;;;5.79;77.80
84617;BME280;74846;51.126;16.944;2023-12-20T06:15:41;99626.42;;;5.80;77.64
84617;BME280;74846;51.126;16.944;2023-12-20T06:18:09;99628.88;;;5.72;77.75
84617;BME280;74846;51.126;16.944;2023-12-20T06:20:37;99632.16;;;5.72;77.41
84617;BME280;74846;51.126;16.944;2023-12-20T06:23:05;99627.83;;;5.69;77.46
84617;BME280;74846;51.126;16.944;2023-12-20T06:25:33;99628.47;;;5.69;77.76
84617;BME280;74846;51.126;16.944;2023-12-20T06:28:01;99629.04;;;5.69;77.78
84617;BME280;74846;51.126;16.944;2023-12-20T06:30:29;99629.51;;;5.70;77.79
84617;BME280;74846;51.126;16.944;2023-12-20T06:32:58;99626.79;;;5.72;77.71
84617;BME280;74846;51.126;16.944;2023-12-20T06:35:26;99626.52;;;5.70;77.47
84617;BME280;74846;51.126;16.944;2023-12-20T06:37:54;99627.47;;;5.65;77.63
84617;BME280;74846;51.126;16.944;2023-12-20T06:40:22;99635.38;;;5.64;77.44
84617;BME280;74846;51.126;16.944;2023-12-20T06:42:50;99639.13;;;5.62;77.44
84617;BME280;74846;51.126;16.944;2023-12-20T06:45:33;99635.67;;;5.58;77.42
84617;BME280;74846;51.126;16.944;2023-12-20T06:48:01;99631.58;;;5.60;77.79
84617;BME280;74846;51.126;16.944;2023-12-20T06:50:29;99644.48;;;5.59;78.07
84617;BME280;74846;51.126;16.944;2023-12-20T06:52:57;99643.47;;;5.63;78.07
84617;BME280;74846;51.126;16.944;2023-12-20T06:55:25;99641.18;;;5.67;77.97
84617;BME280;74846;51.126;16.944;2023-12-20T06:57:53;99645.16;;;5.63;77.82
84617;BME280;74846;51.126;16.944;2023-12-20T07:00:21;99649.36;;;5.60;77.50
84617;BME280;74846;51.126;16.944;2023-12-20T07:02:49;99642.44;;;5.55;77.72
84617;BME280;74846;51.126;16.944;2023-12-20T07:05:17;99649.45;;;5.54;77.62
84617;BME280;74846;51.126;16.944;2023-12-20T07:07:48;99653.64;;;5.61;77.79
84617;BME280;74846;51.126;16.944;2023-12-20T07:10:17;99649.96;;;5.61;77.94
84617;BME280;74846;51.126;16.944;2023-12-20T07:12:45;99653.35;;;5.60;78.17
84617;BME280;74846;51.126;16.944;2023-12-20T07:15:13;99640.02;;;5.51;78.45
84617;BME280;74846;51.126;16.944;2023-12-20T07:17:41;99654.02;;;5.61;78.19
84617;BME280;74846;51.126;16.944;2023-12-20T07:20:11;99654.11;;;5.58;78.12
84617;BME280;74846;51.126;16.944;2023-12-20T07:22:39;99657.02;;;5.56;77.88
84617;BME280;74846;51.126;16.944;2023-12-20T07:25:07;99663.05;;;5.54;77.92
84617;BME280;74846;51.126;16.944;2023-12-20T07:27:35;99658.34;;;5.47;77.82
84617;BME280;74846;51.126;16.944;2023-12-20T07:30:04;99667.48;;;5.56;77.98
84617;BME280;74846;51.126;16.944;2023-12-20T07:32:32;99667.55;;;5.55;78.14
84617;BME280;74846;51.126;16.944;2023-12-20T07:35:00;99666.44;;;5.57;78.08
84617;BME280;74846;51.126;16.944;2023-12-20T07:37:28;99663.17;;;5.58;78.22
84617;BME280;74846;51.126;16.944;2023-12-20T07:39:56;99667.41;;;5.58;78.12
84617;BME280;74846;51.126;16.944;2023-12-20T07:42:24;99667.08;;;5.54;77.92
84617;BME280;74846;51.126;16.944;2023-12-20T07:44:52;99667.14;;;5.53;77.91
84617;BME280;74846;51.126;16.944;2023-12-20T07:47:20;99663.23;;;5.51;77.92
84617;BME280;74846;51.126;16.944;2023-12-20T07:49:49;99662.48;;;5.55;77.98
84617;BME280;74846;51.126;16.944;2023-12-20T07:52:19;99660.64;;;5.54;78.09
84617;BME280;74846;51.126;16.944;2023-12-20T07:54:47;99661.16;;;5.53;78.20
84617;BME280;74846;51.126;16.944;2023-12-20T07:57:15;99646.67;;;5.47;78.17
84617;BME280;74846;51.126;16.944;2023-12-20T07:59:43;99662.79;;;5.56;78.13
84617;BME280;74846;51.126;16.944;2023-12-20T08:02:12;99666.86;;;5.54;77.83
84617;BME280;74846;51.126;16.944;2023-12-20T08:04:40;99666.73;;;5.50;77.72
84617;BME280;74846;51.126;16.944;2023-12-20T08:07:09;99667.53;;;5.51;77.71
84617;BME280;74846;51.126;16.944;2023-12-20T08:09:37;99666.53;;;5.51;77.72
84617;BME280;74846;51.126;16.944;2023-12-20T08:12:05;99669.44;;;5.52;77.99
84617;BME280;74846;51.126;16.944;2023-12-20T08:14:33;99672.84;;;5.50;78.07
84617;BME280;74846;51.126;16.944;2023-12-20T08:17:01;99671.76;;;5.51;78.15
84617;BME280;74846;51.126;16.944;2023-12-20T08:19:29;99672.98;;;5.54;78.15
84617;BME280;74846;51.126;16.944;2023-12-20T08:21:57;99677.69;;;5.55;78.05
84617;BME280;74846;51.126;16.944;2023-12-20T08:24:25;99679.02;;;5.56;77.86
84617;BME280;74846;51.126;16.944;2023-12-20T08:26:53;99680.28;;;5.55;77.72
84617;BME280;74846;51.126;16.944;2023-12-20T08:29:21;99680.56;;;5.56;77.70
84617;BME280;74846;51.126;16.944;2023-12-20T08:31:53;99680.91;;;5.56;77.60
84617;BME280;74846;51.126;16.944;2023-12-20T08:34:22;99681.08;;;5.60;77.97
84617;BME280;74846;51.126;16.944;2023-12-20T08:36:52;99681.17;;;5.62;77.69
84617;BME280;74846;51.126;16.944;2023-12-20T08:39:20;99684.73;;;5.64;77.73
84617;BME280;74846;51.126;16.944;2023-12-20T08:41:48;99686.02;;;5.66;77.72
84617;BME280;74846;51.126;16.944;2023-12-20T08:44:16;99687.86;;;5.60;77.36
84617;BME280;74846;51.126;16.944;2023-12-20T08:46:45;99686.27;;;5.57;77.40
84617;BME280;74846;51.126;16.944;2023-12-20T08:49:13;99694.54;;;5.60;77.19
84617;BME280;74846;51.126;16.944;2023-12-20T08:51:41;99693.55;;;5.55;77.63
84617;BME280;74846;51.126;16.944;2023-12-20T08:54:10;99694.55;;;5.59;77.58
84617;BME280;74846;51.126;16.944;2023-12-20T08:56:38;99684.88;;;5.61;77.70
84617;BME280;74846;51.126;16.944;2023-12-20T08:59:06;99688.66;;;5.66;77.66
84617;BME280;74846;51.126;16.944;2023-12-20T09:01:34;99696.59;;;5.68;77.40
84617;BME280;74846;51.126;16.944;2023-12-20T09:04:03;99695.75;;;5.71;77.17
84617;BME280;74846;51.126;16.944;2023-12-20T09:06:31;99697.81;;;5.68;76.98
84617;BME280;74846;51.126;16.944;2023-12-20T09:08:59;99705.10;;;5.65;77.17
84617;BME280;74846;51.126;16.944;2023-12-20T09:11:27;99705.09;;;5.61;77.24
84617;BME280;74846;51.126;16.944;2023-12-20T09:13:55;99700.98;;;5.60;77.46
84617;BME280;74846;51.126;16.944;2023-12-20T09:16:23;99705.73;;;5.66;77.63
84617;BME280;74846;51.126;16.944;2023-12-20T09:18:51;99704.02;;;5.69;77.56
84617;BME280;74846;51.126;16.944;2023-12-20T09:21:20;99699.77;;;5.74;77.59
84617;BME280;74846;51.126;16.944;2023-12-20T09:23:48;99694.67;;;5.75;77.65
84617;BME280;74846;51.126;16.944;2023-12-20T09:26:16;99700.40;;;5.84;77.18
84617;BME280;74846;51.126;16.944;2023-12-20T09:28:44;99697.11;;;5.83;77.09
84617;BME280;74846;51.126;16.944;2023-12-20T09:31:11;99675.05;;;5.74;76.91
84617;BME280;74846;51.126;16.944;2023-12-20T09:33:40;99696.93;;;5.87;76.87
84617;BME280;74846;51.126;16.944;2023-12-20T09:36:08;99700.34;;;5.93;76.98
84617;BME280;74846;51.126;16.944;2023-12-20T09:38:36;99706.92;;;5.97;77.02
84617;BME280;74846;51.126;16.944;2023-12-20T09:41:04;99698.95;;;6.03;76.84
84617;BME280;74846;51.126;16.944;2023-12-20T09:43:38;99701.46;;;6.09;76.57
84617;BME280;74846;51.126;16.944;2023-12-20T09:46:06;99696.23;;;6.09;76.33
84617;BME280;74846;51.126;16.944;2023-12-20T09:48:38;99698.04;;;6.15;75.94
84617;BME280;74846;51.126;16.944;2023-12-20T09:51:08;99690.73;;;6.14;75.73
84617;BME280;74846;51.126;16.944;2023-12-20T09:53:37;99686.20;;;6.18;75.40
84617;BME280;74846;51.126;16.944;2023-12-20T09:56:06;99687.37;;;6.19;75.61
84617;BME280;74846;51.126;16.944;2023-12-20T09:58:37;99686.23;;;6.21;75.78
84617;BME280;74846;51.126;16.944;2023-12-20T10:01:06;99682.74;;;6.24;75.47
84617;BME280;74846;51.126;16.944;2023-12-20T10:03:39;99680.66;;;6.17;75.42
84617;BME280;74846;51.126;16.944;2023-12-20T10:06:08;99683.98;;;6.20;74.94
84617;BME280;74846;51.126;16.944;2023-12-20T10:08:37;99689.16;;;6.18;74.78
84617;BME280;74846;51.126;16.944;2023-12-20T10:11:06;99688.33;;;6.17;75.04
84617;BME280;74846;51.126;16.944;2023-12-20T10:13:34;99682.65;;;6.19;75.24
84617;BME280;74846;51.126;16.944;2023-12-20T10:16:02;99681.96;;;6.22;75.31
84617;BME280;74846;51.126;16.944;2023-12-20T10:18:30;99676.88;;;6.26;74.59
84617;BME280;74846;51.126;16.944;2023-12-20T10:21:06;99640.11;;;6.04;73.52
84617;BME280;74846;51.126;16.944;2023-12-20T10:23:38;99675.55;;;6.14;73.50
84617;BME280;74846;51.126;16.944;2023-12-20T10:26:07;99671.77;;;6.10;73.63
84617;BME280;74846;51.126;16.944;2023-12-20T10:28:35;99672.77;;;6.14;73.89
84617;BME280;74846;51.126;16.944;2023-12-20T10:31:05;99668.89;;;6.22;74.05
84617;BME280;74846;51.126;16.944;2023-12-20T10:33:33;99671.19;;;6.32;74.10
84617;BME280;74846;51.126;16.944;2023-12-20T10:36:02;99673.09;;;6.42;73.80
84617;BME280;74846;51.126;16.944;2023-12-20T10:38:31;99674.41;;;6.44;73.93
84617;BME280;74846;51.126;16.944;2023-12-20T10:41:01;99671.38;;;6.48;73.69
84617;BME280;74846;51.126;16.944;2023-12-20T10:43:32;99663.16;;;6.45;73.35
84617;BME280;74846;51.126;16.944;2023-12-20T10:46:03;99666.33;;;6.55;73.09
84617;BME280;74846;51.126;16.944;2023-12-20T10:48:31;99671.25;;;6.61;72.53
84617;BME280;74846;51.126;16.944;2023-12-20T10:51:01;99668.94;;;6.69;72.28
84617;BME280;74846;51.126;16.944;2023-12-20T10:53:30;99669.91;;;6.77;72.43
84617;BME280;74846;51.126;16.944;2023-12-20T10:56:00;99667.91;;;6.85;71.43
84617;BME280;74846;51.126;16.944;2023-12-20T10:58:32;99658.27;;;6.93;70.84
84617;BME280;74846;51.126;16.944;2023-12-20T11:01:01;99654.48;;;6.95;70.53
84617;BME280;74846;51.126;16.944;2023-12-20T11:03:34;99649.46;;;6.90;70.00
84617;BME280;74846;51.126;16.944;2023-12-20T11:08:52;99647.17;;;6.78;70.13
84617;BME280;74846;51.126;16.944;2023-12-20T11:11:27;99643.09;;;6.76;70.31
84617;BME280;74846;51.126;16.944;2023-12-20T11:14:05;99645.64;;;6.84;69.97
84617;BME280;74846;51.126;16.944;2023-12-20T11:16:37;99644.41;;;6.94;70.13
84617;BME280;74846;51.126;16.944;2023-12-20T11:19:18;99632.84;;;7.07;69.56
84617;BME280;74846;51.126;16.944;2023-12-20T11:21:46;99611.56;;;7.13;69.79
84617;BME280;74846;51.126;16.944;2023-12-20T11:24:15;99606.59;;;7.27;68.79
84617;BME280;74846;51.126;16.944;2023-12-20T11:26:47;99623.23;;;7.52;67.93
84617;BME280;74846;51.126;16.944;2023-12-20T11:29:36;99617.61;;;7.55;67.60
84617;BME280;74846;51.126;16.944;2023-12-20T11:34:55;99604.22;;;7.51;67.87
84617;BME280;74846;51.126;16.944;2023-12-20T11:37:35;99606.02;;;7.53;68.25
84617;BME280;74846;51.126;16.944;2023-12-20T11:40:08;99598.81;;;7.63;67.32
84617;BME280;74846;51.126;16.944;2023-12-20T11:42:40;99600.73;;;7.63;66.81
84617;BME280;74846;51.126;16.944;2023-12-20T11:45:13;99597.44;;;7.62;66.46
84617;BME280;74846;51.126;16.944;2023-12-20T11:47:46;99591.42;;;7.64;66.44
84617;BME280;74846;51.126;16.944;2023-12-20T11:50:16;99589.77;;;7.65;66.08
84617;BME280;74846;51.126;16.944;2023-12-20T11:52:44;99576.46;;;7.59;65.91
84617;BME280;74846;51.126;16.944;2023-12-20T11:55:13;99578.25;;;7.65;65.86
84617;BME280;74846;51.126;16.944;2023-12-20T11:57:42;99579.69;;;7.64;65.77
84617;BME280;74846;51.126;16.944;2023-12-20T12:00:11;99577.74;;;7.64;65.82
84617;BME280;74846;51.126;16.944;2023-12-20T12:02:39;99572.04;;;7.60;65.57
84617;BME280;74846;51.126;16.944;2023-12-20T12:05:07;99568.56;;;7.62;66.02
84617;BME280;74846;51.126;16.944;2023-12-20T12:07:36;99563.64;;;7.66;66.09
84617;BME280;74846;51.126;16.944;2023-12-20T12:10:04;99561.85;;;7.64;66.29
84617;BME280;74846;51.126;16.944;2023-12-20T12:12:32;99553.56;;;7.62;65.74
84617;BME280;74846;51.126;16.944;2023-12-20T12:15:00;99557.06;;;7.59;65.03
84617;BME280;74846;51.126;16.944;2023-12-20T12:17:30;99549.66;;;7.57;65.41
84617;BME280;74846;51.126;16.944;2023-12-20T12:20:03;99537.95;;;7.53;65.47
84617;BME280;74846;51.126;16.944;2023-12-20T12:22:32;99536.17;;;7.48;65.20
84617;BME280;74846;51.126;16.944;2023-12-20T12:25:11;99537.67;;;7.42;65.10
84617;BME280;74846;51.126;16.944;2023-12-20T12:27:41;99537.27;;;7.40;64.66
84617;BME280;74846;51.126;16.944;2023-12-20T12:30:10;99538.56;;;7.36;64.55
84617;BME280;74846;51.126;16.944;2023-12-20T12:32:40;99529.77;;;7.34;64.25
84617;BME280;74846;51.126;16.944;2023-12-20T12:35:09;99508.39;;;7.22;64.54
84617;BME280;74846;51.126;16.944;2023-12-20T12:37:38;99531.23;;;7.39;64.50
84617;BME280;74846;51.126;16.944;2023-12-20T12:40:15;99531.66;;;7.38;64.16
84617;BME280;74846;51.126;16.944;2023-12-20T12:42:44;99528.34;;;7.34;64.15
84617;BME280;74846;51.126;16.944;2023-12-20T12:45:13;99528.05;;;7.27;64.30
84617;BME280;74846;51.126;16.944;2023-12-20T12:47:41;99533.54;;;7.23;64.21
84617;BME280;74846;51.126;16.944;2023-12-20T12:50:09;99528.23;;;7.21;64.49
84617;BME280;74846;51.126;16.944;2023-12-20T12:52:38;99529.45;;;7.15;64.49
84617;BME280;74846;51.126;16.944;2023-12-20T12:55:06;99518.90;;;7.00;64.74
84617;BME280;74846;51.126;16.944;2023-12-20T12:57:34;99530.20;;;7.07;65.27
84617;BME280;74846;51.126;16.944;2023-12-20T13:00:02;99530.29;;;7.06;65.80
84617;BME280;74846;51.126;16.944;2023-12-20T13:02:31;99531.70;;;7.12;65.76
84617;BME280;74846;51.126;16.944;2023-12-20T13:04:59;99522.80;;;7.15;65.25
84617;BME280;74846;51.126;16.944;2023-12-20T13:07:28;99520.52;;;7.15;64.98
84617;BME280;74846;51.126;16.944;2023-12-20T13:09:57;99506.62;;;7.10;65.03
84617;BME280;74846;51.126;16.944;2023-12-20T13:12:25;99521.84;;;7.16;64.71
84617;BME280;74846;51.126;16.944;2023-12-20T13:14:53;99515.42;;;7.18;64.61
84617;BME280;74846;51.126;16.944;2023-12-20T13:17:22;99514.21;;;7.15;64.85